createdAt,value
2022-09-10T00:01:32.578Z,97499.83
2022-09-10T00:04:02.536Z,97498.94
2022-09-10T00:06:35.558Z,97493.32
2022-09-10T00:09:03.626Z,97493.00
2022-09-10T00:11:32.414Z,97488.03
2022-09-10T00:14:02.370Z,97486.94
2022-09-10T00:16:31.445Z,97486.22
2022-09-10T00:19:01.486Z,97483.84
2022-09-10T00:21:30.233Z,97475.91
2022-09-10T00:23:58.831Z,97476.39
2022-09-10T00:26:29.790Z,97482.58
2022-09-10T00:29:02.049Z,97487.31
2022-09-10T00:31:32.166Z,97486.51
2022-09-10T00:34:01.615Z,97480.20
2022-09-10T00:36:36.145Z,97484.52
2022-09-10T00:39:08.312Z,97480.77
2022-09-10T00:41:39.333Z,97478.89
2022-09-10T00:44:31.560Z,97480.41
2022-09-10T00:47:01.939Z,97475.70
2022-09-10T00:49:38.840Z,97473.79
2022-09-10T00:52:07.956Z,97475.35
2022-09-10T00:54:37.975Z,97469.75
2022-09-10T00:57:12.208Z,97465.16
2022-09-10T00:59:48.872Z,97459.80
2022-09-10T01:02:17.611Z,97452.03
2022-09-10T01:04:46.866Z,97458.21
2022-09-10T01:07:15.859Z,97458.56
2022-09-10T01:09:44.657Z,97451.95
2022-09-10T01:12:22.194Z,97450.23
2022-09-10T01:15:09.547Z,97446.99
2022-09-10T01:18:03.947Z,97444.52
2022-09-10T01:21:01.977Z,97446.49
2022-09-10T01:24:07.337Z,97453.79
2022-09-10T01:26:41.431Z,97442.46
2022-09-10T01:29:14.139Z,97433.88
2022-09-10T01:31:51.016Z,97430.56
2022-09-10T01:34:27.290Z,97434.02
2022-09-10T01:37:01.335Z,97438.40
2022-09-10T01:39:29.662Z,97438.95
2022-09-10T01:42:00.314Z,97437.42
2022-09-10T01:44:47.551Z,97434.02
2022-09-10T01:47:34.316Z,97432.55
2022-09-10T01:50:34.249Z,97433.35
2022-09-10T01:53:11.693Z,97432.84
2022-09-10T01:55:58.700Z,97430.41
2022-09-10T01:58:38.189Z,97419.73
2022-09-10T02:01:20.279Z,97417.73
2022-09-10T02:03:52.503Z,97417.89
2022-09-10T02:06:29.796Z,97416.46
2022-09-10T02:09:00.674Z,97412.98
2022-09-10T02:11:29.729Z,97408.63
2022-09-10T02:14:01.083Z,97409.33
2022-09-10T02:16:55.086Z,97408.11
2022-09-10T02:19:23.102Z,97404.70
2022-09-10T02:21:53.494Z,97399.88
2022-09-10T02:24:22.266Z,97399.48
2022-09-10T02:26:51.286Z,97394.86
2022-09-10T02:29:19.560Z,97391.29
2022-09-10T02:31:47.674Z,97392.15
2022-09-10T02:34:20.178Z,97387.45
2022-09-10T02:36:49.618Z,97381.46
2022-09-10T02:39:17.640Z,97380.59
2022-09-10T02:41:50.205Z,97377.98
2022-09-10T02:44:18.256Z,97379.48
2022-09-10T02:46:46.245Z,97379.47
2022-09-10T02:49:15.163Z,97370.33
2022-09-10T02:51:44.904Z,97359.84
2022-09-10T02:54:13.445Z,97354.73
2022-09-10T02:56:41.388Z,97356.23
2022-09-10T02:59:09.902Z,97358.95
2022-09-10T03:01:38.787Z,97361.02
2022-09-10T03:04:06.942Z,97364.65
2022-09-10T03:06:35.310Z,97359.45
2022-09-10T03:09:03.382Z,97353.25
2022-09-10T03:11:33.097Z,97349.73
2022-09-10T03:14:01.153Z,97352.23
2022-09-10T03:16:30.435Z,97344.61
2022-09-10T03:18:58.380Z,97343.98
2022-09-10T03:21:27.334Z,97345.64
2022-09-10T03:23:58.418Z,97342.84
2022-09-10T03:26:30.489Z,97340.34
2022-09-10T03:28:59.010Z,97340.09
2022-09-10T03:31:27.625Z,97349.30
2022-09-10T03:33:55.738Z,97364.23
2022-09-10T03:36:23.872Z,97367.21
2022-09-10T03:38:51.966Z,97366.98
2022-09-10T03:41:20.003Z,97363.77
2022-09-10T03:43:49.250Z,97357.21
2022-09-10T03:46:17.190Z,97352.60
2022-09-10T03:48:45.649Z,97356.34
2022-09-10T03:51:14.129Z,97360.21
2022-09-10T03:53:43.508Z,97356.41
2022-09-10T03:56:12.142Z,97347.88
2022-09-10T03:58:40.692Z,97339.85
2022-09-10T04:01:09.551Z,97336.90
2022-09-10T04:03:38.632Z,97336.26
2022-09-10T04:06:10.883Z,97333.59
2022-09-10T04:08:40.229Z,97334.61
2022-09-10T04:11:11.099Z,97335.88
2022-09-10T04:13:39.490Z,97336.42
2022-09-10T04:16:07.848Z,97340.89
2022-09-10T04:18:35.994Z,97337.24
2022-09-10T04:21:04.641Z,97330.21
2022-09-10T04:23:32.919Z,97326.53
2022-09-10T04:26:11.638Z,97332.39
2022-09-10T04:28:40.050Z,97344.98
2022-09-10T04:31:08.156Z,97352.19
2022-09-10T04:33:37.121Z,97344.02
2022-09-10T04:36:06.545Z,97340.08
2022-09-10T04:38:42.691Z,97341.73
2022-09-10T04:41:15.557Z,97337.67
2022-09-10T04:43:44.210Z,97337.73
2022-09-10T04:46:12.618Z,97333.52
2022-09-10T04:48:43.296Z,97335.63
2022-09-10T04:51:17.794Z,97317.95
2022-09-10T04:53:55.757Z,97321.27
2022-09-10T04:56:28.657Z,97326.55
2022-09-10T04:58:57.677Z,97332.78
2022-09-10T05:01:28.731Z,97323.61
2022-09-10T05:03:56.976Z,97328.52
2022-09-10T05:06:25.027Z,97329.56
2022-09-10T05:08:53.601Z,97324.86
2022-09-10T05:11:22.256Z,97318.88
2022-09-10T05:13:50.191Z,97313.64
2022-09-10T05:16:22.191Z,97316.20
2022-09-10T05:18:50.385Z,97315.16
2022-09-10T05:21:19.581Z,97316.73
2022-09-10T05:23:48.146Z,97309.13
2022-09-10T05:26:16.517Z,97306.16
2022-09-10T05:28:44.751Z,97310.77
2022-09-10T05:31:17.451Z,97298.02
2022-09-10T05:33:46.654Z,97286.73
2022-09-10T05:36:15.198Z,97283.70
2022-09-10T05:38:45.983Z,97289.02
2022-09-10T05:41:15.557Z,97289.62
2022-09-10T05:43:50.016Z,97289.55
2022-09-10T05:46:18.222Z,97275.36
2022-09-10T05:48:50.914Z,97270.12
2022-09-10T05:51:20.372Z,97267.06
2022-09-10T05:53:51.296Z,97254.91
2022-09-10T05:56:20.700Z,97240.10
2022-09-10T05:58:49.825Z,97236.80
2022-09-10T06:01:19.347Z,97240.54
2022-09-10T06:03:47.672Z,97250.31
2022-09-10T06:06:15.936Z,97261.58
2022-09-10T06:08:53.605Z,97262.98
2022-09-10T06:11:29.089Z,97260.42
2022-09-10T06:13:58.010Z,97264.80
2022-09-10T06:16:26.379Z,97253.67
2022-09-10T06:18:57.193Z,97250.80
2022-09-10T06:21:29.444Z,97245.67
2022-09-10T06:23:58.782Z,97240.02
2022-09-10T06:26:28.946Z,97228.08
2022-09-10T06:29:00.797Z,97225.17
2022-09-10T06:31:29.599Z,97235.04
2022-09-10T06:33:58.158Z,97243.23
2022-09-10T06:36:29.814Z,97252.34
2022-09-10T06:38:58.405Z,97247.86
2022-09-10T06:41:27.036Z,97248.06
2022-09-10T06:44:10.827Z,97247.64
2022-09-10T06:49:31.963Z,97246.77
2022-09-10T06:52:00.597Z,97246.87
2022-09-10T06:54:28.794Z,97247.69
2022-09-10T06:57:01.579Z,97247.39
2022-09-10T06:59:34.861Z,97251.29
2022-09-10T07:02:06.964Z,97244.40
2022-09-10T07:04:35.428Z,97247.56
2022-09-10T07:07:03.574Z,97236.89
2022-09-10T07:09:32.678Z,97229.89
2022-09-10T07:12:04.963Z,97217.57
2022-09-10T07:14:37.375Z,97198.10
2022-09-10T07:17:08.249Z,97196.73
2022-09-10T07:19:37.781Z,97206.70
2022-09-10T07:22:22.062Z,97201.23
2022-09-10T07:24:51.587Z,97193.79
2022-09-10T07:27:33.303Z,97188.45
2022-09-10T07:30:01.924Z,97185.77
2022-09-10T07:32:33.718Z,97184.40
2022-09-10T07:35:08.098Z,97175.61
2022-09-10T07:37:36.218Z,97172.55
2022-09-10T07:40:04.898Z,97164.65
2022-09-10T07:42:36.245Z,97170.83
2022-09-10T07:45:05.796Z,97172.63
2022-09-10T07:47:34.614Z,97172.04
2022-09-10T07:50:03.223Z,97173.02
2022-09-10T07:52:31.463Z,97165.38
2022-09-10T07:55:01.042Z,97159.94
2022-09-10T07:57:31.448Z,97151.11
2022-09-10T08:00:00.846Z,97142.08
2022-09-10T08:02:44.820Z,97127.38
2022-09-10T08:05:17.144Z,97127.76
2022-09-10T08:07:46.624Z,97127.60
2022-09-10T08:10:15.145Z,97128.34
2022-09-10T08:12:43.731Z,97120.81
2022-09-10T08:15:12.339Z,97117.91
2022-09-10T08:17:41.188Z,97118.15
2022-09-10T08:20:10.290Z,97121.95
2022-09-10T08:22:40.093Z,97126.21
2022-09-10T08:25:09.083Z,97127.05
2022-09-10T08:27:38.741Z,97122.23
2022-09-10T08:30:10.669Z,97127.14
2022-09-10T08:32:39.075Z,97113.13
2022-09-10T08:35:08.256Z,97104.45
2022-09-10T08:37:36.850Z,97099.42
2022-09-10T08:40:06.002Z,97098.73
2022-09-10T08:42:50.198Z,97107.64
2022-09-10T08:45:24.912Z,97082.29
2022-09-10T08:47:59.943Z,97076.84
2022-09-10T08:50:48.804Z,97086.64
2022-09-10T08:53:45.571Z,97082.73
2022-09-10T08:56:18.317Z,97103.15
2022-09-10T08:58:56.558Z,97119.91
2022-09-10T09:01:47.884Z,97104.51
2022-09-10T09:04:29.942Z,97110.25
2022-09-10T09:07:05.296Z,97092.95
2022-09-10T09:09:35.384Z,97106.86
2022-09-10T09:12:26.534Z,97091.00
2022-09-10T09:15:14.077Z,97089.43
2022-09-10T09:18:11.107Z,97087.20
2022-09-10T09:20:56.968Z,97088.65
2022-09-10T09:23:33.406Z,97057.83
2022-09-10T09:26:14.394Z,97047.86
2022-09-10T09:28:51.708Z,97049.97
2022-09-10T09:31:29.180Z,97041.54
2022-09-10T09:34:09.085Z,97043.83
2022-09-10T09:36:45.159Z,97053.45
2022-09-10T09:39:27.861Z,97054.05
2022-09-10T09:42:18.380Z,97042.35
2022-09-10T09:45:00.446Z,97047.41
2022-09-10T09:47:30.047Z,97049.19
2022-09-10T09:49:59.719Z,97056.94
2022-09-10T09:52:31.457Z,97055.84
2022-09-10T09:55:14.418Z,97060.36
2022-09-10T09:57:43.398Z,97061.57
2022-09-10T10:00:39.047Z,97054.97
2022-09-10T10:03:18.795Z,97065.69
2022-09-10T10:05:48.809Z,97071.82
2022-09-10T10:08:30.964Z,97081.50
2022-09-10T10:11:00.213Z,97083.48
2022-09-10T10:13:43.554Z,97094.67
2022-09-10T10:16:24.301Z,97102.48
2022-09-10T10:18:52.895Z,97095.40
2022-09-10T10:21:32.350Z,97102.52
2022-09-10T10:24:01.436Z,97101.17
2022-09-10T10:26:37.100Z,97097.58
2022-09-10T10:29:19.651Z,97078.48
2022-09-10T10:31:50.841Z,97087.32
2022-09-10T10:34:30.887Z,97101.36
2022-09-10T10:37:08.304Z,97118.35
2022-09-10T10:39:55.651Z,97113.57
2022-09-10T10:42:40.565Z,97101.63
2022-09-10T10:45:37.539Z,97108.89
2022-09-10T10:48:10.172Z,97101.32
2022-09-10T10:50:59.349Z,97092.67
2022-09-10T10:53:40.599Z,97109.20
2022-09-10T10:56:18.267Z,97099.06
2022-09-10T10:59:17.488Z,97119.23
2022-09-10T11:01:54.513Z,97093.05
2022-09-10T11:04:49.110Z,97099.94
2022-09-10T11:07:17.541Z,97111.95
2022-09-10T11:09:59.142Z,97087.20
2022-09-10T11:12:36.816Z,97086.45
2022-09-10T11:15:20.653Z,97090.61
2022-09-10T11:18:05.814Z,97092.13
2022-09-10T11:21:12.597Z,97095.73
2022-09-10T11:24:19.191Z,97102.73
2022-09-10T11:26:51.203Z,97106.27
2022-09-10T11:29:40.669Z,97094.98
2022-09-10T11:32:18.618Z,97092.06
2022-09-10T11:35:06.757Z,97101.30
2022-09-10T11:37:53.499Z,97100.71
2022-09-10T11:40:33.642Z,97106.88
2022-09-10T11:43:13.904Z,97100.90
2022-09-10T11:45:58.787Z,97107.33
2022-09-10T11:48:40.193Z,97114.55
2022-09-10T11:51:30.721Z,97116.02
2022-09-10T11:53:58.921Z,97126.42
2022-09-10T11:56:59.562Z,97130.16
2022-09-10T11:59:52.291Z,97127.81
2022-09-10T12:02:50.766Z,97131.91
2022-09-10T12:05:44.528Z,97124.60
2022-09-10T12:08:41.445Z,97127.41
2022-09-10T12:11:28.641Z,97131.96
2022-09-10T12:13:57.739Z,97134.34
2022-09-10T12:16:25.937Z,97133.38
2022-09-10T12:18:57.264Z,97140.40
2022-09-10T12:21:28.887Z,97150.45
2022-09-10T12:23:57.536Z,97154.91
2022-09-10T12:26:26.508Z,97165.69
2022-09-10T12:29:01.720Z,97159.20
2022-09-10T12:32:08.270Z,97169.61
2022-09-10T12:34:37.581Z,97190.27
2022-09-10T12:37:20.140Z,97200.45
2022-09-10T12:39:49.746Z,97212.76
2022-09-10T12:42:29.069Z,97220.89
2022-09-10T12:45:00.678Z,97236.29
2022-09-10T12:47:48.856Z,97247.27
2022-09-10T12:50:35.620Z,97256.16
2022-09-10T12:53:16.772Z,97256.63
2022-09-10T12:56:15.771Z,97258.89
2022-09-10T12:59:35.063Z,97257.45
2022-09-10T13:02:28.028Z,97260.70
2022-09-10T13:05:18.384Z,97255.88
2022-09-10T13:07:51.672Z,97252.44
2022-09-10T13:10:23.731Z,97263.38
2022-09-10T13:12:55.534Z,97270.55
2022-09-10T13:15:30.234Z,97273.69
2022-09-10T13:17:58.150Z,97272.62
2022-09-10T13:20:26.339Z,97270.48
2022-09-10T13:23:01.515Z,97277.67
2022-09-10T13:26:24.144Z,97278.09
2022-09-10T13:28:52.379Z,97278.16
2022-09-10T13:31:44.557Z,97275.16
2022-09-10T13:34:15.569Z,97272.37
2022-09-10T13:37:14.941Z,97280.92
2022-09-10T13:40:07.841Z,97296.17
2022-09-10T13:42:42.517Z,97304.52
2022-09-10T13:45:20.889Z,97302.45
2022-09-10T13:48:08.767Z,97311.08
2022-09-10T13:50:46.062Z,97308.85
2022-09-10T13:53:17.589Z,97307.02
2022-09-10T13:55:58.016Z,97309.13
2022-09-10T13:58:31.724Z,97300.30
2022-09-10T14:01:01.569Z,97287.63
2022-09-10T14:03:38.060Z,97279.08
2022-09-10T14:06:12.059Z,97272.13
2022-09-10T14:08:56.394Z,97260.65
2022-09-10T14:11:28.240Z,97250.05
2022-09-10T14:14:20.079Z,97244.25
2022-09-10T14:17:13.671Z,97244.10
2022-09-10T14:19:50.622Z,97219.16
2022-09-10T14:22:25.395Z,97209.42
2022-09-10T14:25:04.322Z,97196.70
2022-09-10T14:27:39.174Z,97193.89
2022-09-10T14:30:25.974Z,97201.25
2022-09-10T14:32:54.007Z,97231.67
2022-09-10T14:35:59.233Z,97229.86
2022-09-10T14:38:38.331Z,97211.41
2022-09-10T14:41:20.451Z,97212.17
2022-09-10T14:43:49.938Z,97213.92
2022-09-10T14:46:51.543Z,97216.20
2022-09-10T14:49:28.943Z,97214.52
2022-09-10T14:52:01.756Z,97236.16
2022-09-10T14:54:32.333Z,97204.63
2022-09-10T14:57:10.201Z,97213.27
2022-09-10T14:59:44.901Z,97237.95
2022-09-10T15:02:28.060Z,97235.29
2022-09-10T15:04:57.058Z,97233.69
2022-09-10T15:07:29.768Z,97216.47
2022-09-10T15:09:58.872Z,97208.25
2022-09-10T15:12:31.317Z,97184.25
2022-09-10T15:15:00.603Z,97175.23
2022-09-10T15:17:29.699Z,97200.77
2022-09-10T15:19:59.403Z,97180.55
2022-09-10T15:22:31.989Z,97205.56
2022-09-10T15:25:15.381Z,97163.16
2022-09-10T15:27:44.661Z,97153.44
2022-09-10T15:30:12.953Z,97138.19
2022-09-10T15:32:42.736Z,97140.27
2022-09-10T15:35:11.415Z,97170.13
2022-09-10T15:37:40.610Z,97170.06
2022-09-10T15:40:10.334Z,97183.95
2022-09-10T15:42:40.954Z,97213.80
2022-09-10T15:45:10.333Z,97200.95
2022-09-10T15:47:42.003Z,97191.04
2022-09-10T15:50:14.545Z,97218.27
2022-09-10T15:52:45.142Z,97225.13
2022-09-10T15:55:14.029Z,97202.86
2022-09-10T15:57:42.620Z,97204.85
2022-09-10T16:00:12.230Z,97200.61
2022-09-10T16:02:41.280Z,97203.41
2022-09-10T16:05:09.991Z,97212.45
2022-09-10T16:07:40.670Z,97224.14
2022-09-10T16:10:09.259Z,97243.11
2022-09-10T16:12:38.493Z,97233.13
2022-09-10T16:15:08.256Z,97232.99
2022-09-10T16:17:36.940Z,97238.59
2022-09-10T16:20:07.869Z,97246.88
2022-09-10T16:22:35.951Z,97246.56
2022-09-10T16:25:07.335Z,97241.00
2022-09-10T16:27:39.442Z,97256.12
2022-09-10T16:30:10.690Z,97250.48
2022-09-10T16:32:38.721Z,97250.15
2022-09-10T16:35:08.710Z,97254.10
2022-09-10T16:37:37.823Z,97252.00
2022-09-10T16:40:07.670Z,97247.87
2022-09-10T16:42:35.968Z,97247.95
2022-09-10T16:45:04.337Z,97248.90
2022-09-10T16:47:33.820Z,97250.27
2022-09-10T16:50:01.914Z,97252.45
2022-09-10T16:52:31.589Z,97251.84
2022-09-10T16:55:00.128Z,97248.02
2022-09-10T16:57:28.558Z,97250.15
2022-09-10T16:59:57.223Z,97264.38
2022-09-10T17:02:25.400Z,97279.10
2022-09-10T17:04:54.355Z,97278.09
2022-09-10T17:07:22.440Z,97279.65
2022-09-10T17:09:50.556Z,97304.86
2022-09-10T17:12:18.662Z,97315.90
2022-09-10T17:14:48.055Z,97321.86
2022-09-10T17:17:16.497Z,97327.67
2022-09-10T17:19:44.903Z,97331.46
2022-09-10T17:22:13.364Z,97338.44
2022-09-10T17:24:43.476Z,97334.55
2022-09-10T17:27:12.332Z,97344.23
2022-09-10T17:29:41.284Z,97356.48
2022-09-10T17:32:09.467Z,97355.36
2022-09-10T17:34:38.138Z,97357.50
2022-09-10T17:37:06.379Z,97352.94
2022-09-10T17:39:34.597Z,97339.45
2022-09-10T17:42:05.348Z,97327.49
2022-09-10T17:44:34.148Z,97348.98
2022-09-10T17:47:02.568Z,97352.27
2022-09-10T17:49:30.737Z,97352.46
2022-09-10T17:52:03.888Z,97351.02
2022-09-10T17:54:32.900Z,97341.84
2022-09-10T17:57:02.302Z,97338.54
2022-09-10T17:59:32.210Z,97343.86
2022-09-10T18:02:00.404Z,97346.89
2022-09-10T18:04:28.614Z,97343.75
2022-09-10T18:06:57.673Z,97348.05
2022-09-10T18:09:26.588Z,97358.06
2022-09-10T18:11:56.447Z,97362.13
2022-09-10T18:14:26.026Z,97352.86
2022-09-10T18:16:56.204Z,97355.29
2022-09-10T18:19:25.543Z,97349.60
2022-09-10T18:21:53.619Z,97340.64
2022-09-10T18:24:24.163Z,97338.13
2022-09-10T18:26:54.871Z,97348.69
2022-09-10T18:29:30.156Z,97357.80
2022-09-10T18:32:02.918Z,97364.66
2022-09-10T18:34:31.469Z,97370.86
2022-09-10T18:37:01.651Z,97370.54
2022-09-10T18:39:31.905Z,97372.55
2022-09-10T18:42:01.765Z,97374.77
2022-09-10T18:44:35.398Z,97368.10
2022-09-10T18:47:17.672Z,97367.73
2022-09-10T18:49:50.942Z,97365.92
2022-09-10T18:52:19.162Z,97354.48
2022-09-10T18:54:48.589Z,97355.45
2022-09-10T18:57:17.250Z,97360.19
2022-09-10T18:59:45.467Z,97361.30
2022-09-10T19:02:15.962Z,97362.52
2022-09-10T19:05:07.341Z,97358.23
2022-09-10T19:07:32.417Z,97359.58
2022-09-10T19:10:05.029Z,97356.20
2022-09-10T19:12:33.385Z,97350.84
2022-09-10T19:15:01.411Z,97331.16
2022-09-10T19:17:30.194Z,97328.39
2022-09-10T19:19:58.411Z,97323.26
2022-09-10T19:22:26.583Z,97317.70
2022-09-10T19:24:55.908Z,97312.81
2022-09-10T19:27:24.733Z,97310.95
2022-09-10T19:29:53.421Z,97311.02
2022-09-10T19:32:23.663Z,97302.88
2022-09-10T19:34:52.366Z,97300.88
2022-09-10T19:37:21.077Z,97292.78
2022-09-10T19:39:51.191Z,97288.16
2022-09-10T19:42:19.251Z,97292.05
2022-09-10T19:44:48.270Z,97287.23
2022-09-10T19:47:16.431Z,97287.98
2022-09-10T19:49:44.686Z,97289.56
2022-09-10T19:52:12.688Z,97285.80
2022-09-10T19:54:40.938Z,97285.78
2022-09-10T19:57:08.980Z,97284.48
2022-09-10T19:59:37.267Z,97280.48
2022-09-10T20:02:05.448Z,97287.73
2022-09-10T20:04:35.132Z,97284.27
2022-09-10T20:07:03.438Z,97285.27
2022-09-10T20:09:31.506Z,97298.42
2022-09-10T20:12:00.045Z,97287.45
2022-09-10T20:14:28.302Z,97292.83
2022-09-10T20:16:57.035Z,97293.21
2022-09-10T20:19:25.228Z,97295.90
2022-09-10T20:21:53.392Z,97297.44
2022-09-10T20:24:22.217Z,97309.55
2022-09-10T20:26:50.387Z,97319.97
2022-09-10T20:29:20.601Z,97319.30
2022-09-10T20:31:48.814Z,97317.27
2022-09-10T20:34:20.343Z,97318.56
2022-09-10T20:36:53.437Z,97315.92
2022-09-10T20:39:26.391Z,97319.19
2022-09-10T20:41:54.509Z,97315.83
2022-09-10T20:44:23.380Z,97319.99
2022-09-10T20:46:51.386Z,97328.91
2022-09-10T20:49:20.962Z,97314.30
2022-09-10T20:51:49.102Z,97315.03
2022-09-10T20:54:18.928Z,97310.89
2022-09-10T20:56:47.145Z,97306.23
2022-09-10T20:59:17.478Z,97304.20
2022-09-10T21:01:51.540Z,97315.38
2022-09-10T21:04:20.044Z,97323.70
2022-09-10T21:06:49.179Z,97318.63
2022-09-10T21:09:17.381Z,97324.48
2022-09-10T21:11:45.367Z,97319.01
2022-09-10T21:14:13.698Z,97314.91
2022-09-10T21:16:43.276Z,97307.71
2022-09-10T21:19:14.102Z,97314.02
2022-09-10T21:21:45.587Z,97317.67
2022-09-10T21:24:16.127Z,97325.23
2022-09-10T21:26:44.885Z,97331.77
2022-09-10T21:29:18.599Z,97330.18
2022-09-10T21:31:48.069Z,97332.00
2022-09-10T21:34:17.491Z,97329.70
2022-09-10T21:36:45.642Z,97323.98
2022-09-10T21:39:16.468Z,97326.27
2022-09-10T21:41:49.156Z,97325.11
2022-09-10T21:44:20.339Z,97326.24
2022-09-10T21:46:50.777Z,97331.95
2022-09-10T21:49:20.461Z,97330.18
2022-09-10T21:51:48.560Z,97334.77
2022-09-10T21:54:22.129Z,97332.95
2022-09-10T21:56:52.171Z,97337.08
2022-09-10T21:59:21.635Z,97345.52
2022-09-10T22:01:50.141Z,97342.86
2022-09-10T22:04:22.581Z,97346.01
2022-09-10T22:06:52.043Z,97341.40
2022-09-10T22:09:21.371Z,97338.41
2022-09-10T22:11:52.123Z,97337.02
2022-09-10T22:14:25.580Z,97339.38
2022-09-10T22:16:54.344Z,97339.19
2022-09-10T22:19:25.211Z,97342.38
2022-09-10T22:21:57.442Z,97350.66
2022-09-10T22:24:26.369Z,97353.86
2022-09-10T22:26:54.716Z,97356.82
2022-09-10T22:29:23.057Z,97357.08
2022-09-10T22:31:52.049Z,97357.63
2022-09-10T22:34:20.898Z,97358.64
2022-09-10T22:36:49.770Z,97359.20
2022-09-10T22:39:20.947Z,97363.63
2022-09-10T22:41:52.389Z,97370.55
2022-09-10T22:44:20.534Z,97373.41
2022-09-10T22:46:49.081Z,97369.91
2022-09-10T22:49:18.324Z,97375.66
2022-09-10T22:51:46.612Z,97371.25
2022-09-10T22:54:17.495Z,97374.77
2022-09-10T22:56:46.434Z,97376.65
2022-09-10T22:59:15.465Z,97381.44
2022-09-10T23:01:47.778Z,97380.56
2022-09-10T23:04:16.179Z,97389.79
2022-09-10T23:06:44.379Z,97393.91
2022-09-10T23:09:17.732Z,97398.26
2022-09-10T23:11:46.269Z,97404.48
2022-09-10T23:14:20.047Z,97406.59
2022-09-10T23:16:51.037Z,97410.33
2022-09-10T23:19:22.449Z,97406.41
2022-09-10T23:21:55.306Z,97408.46
2022-09-10T23:24:25.046Z,97407.16
2022-09-10T23:26:53.948Z,97407.77
2022-09-10T23:29:23.332Z,97406.22
2022-09-10T23:31:54.680Z,97407.48
2022-09-10T23:34:23.544Z,97410.32
2022-09-10T23:36:53.227Z,97415.48
2022-09-10T23:39:23.741Z,97422.55
2022-09-10T23:41:55.176Z,97414.85
2022-09-10T23:44:23.294Z,97413.89
2022-09-10T23:46:51.759Z,97415.60
2022-09-10T23:49:20.038Z,97410.52
2022-09-10T23:51:49.178Z,97411.21
2022-09-10T23:54:17.874Z,97410.72
2022-09-10T23:56:45.927Z,97410.43
2022-09-10T23:59:15.409Z,97405.70
